createdAt,value
2022-10-11T00:02:08.579Z,100254.13
2022-10-11T00:04:36.501Z,100264.06
2022-10-11T00:07:04.453Z,100256.81
2022-10-11T00:09:33.835Z,100258.69
2022-10-11T00:12:01.852Z,100253.44
2022-10-11T00:14:29.971Z,100226.09
2022-10-11T00:16:57.857Z,100246.50
2022-10-11T00:19:25.825Z,100244.69
2022-10-11T00:21:53.705Z,100246.78
2022-10-11T00:24:21.597Z,100230.63
2022-10-11T00:26:50.906Z,100230.81
2022-10-11T00:29:18.884Z,100229.97
2022-10-11T00:31:46.811Z,100202.63
2022-10-11T00:34:17.208Z,100218.25
2022-10-11T00:36:45.620Z,100211.31
2022-10-11T00:39:14.476Z,100204.19
2022-10-11T00:41:42.924Z,100211.41
2022-10-11T00:44:15.594Z,100193.31
2022-10-11T00:46:45.735Z,100212.41
2022-10-11T00:49:20.584Z,100196.28
2022-10-11T00:51:53.649Z,100208.88
2022-10-11T00:54:25.292Z,100196.28
2022-10-11T00:56:57.376Z,100196.41
2022-10-11T00:59:32.340Z,100168.00
2022-10-11T01:02:00.478Z,100188.34
2022-10-11T01:04:28.465Z,100190.91
2022-10-11T01:06:57.048Z,100192.75
2022-10-11T01:09:25.994Z,100185.56
2022-10-11T01:11:55.630Z,100169.41
2022-10-11T01:14:40.093Z,100188.09
2022-10-11T01:17:18.362Z,100177.63
2022-10-11T01:19:59.328Z,100183.13
2022-10-11T01:22:47.739Z,100180.03
2022-10-11T01:25:22.290Z,100188.09
2022-10-11T01:28:03.778Z,100182.72
2022-10-11T01:30:35.329Z,100189.06
2022-10-11T01:33:18.905Z,100182.72
2022-10-11T01:35:54.618Z,100186.25
2022-10-11T01:38:29.976Z,100176.50
2022-10-11T01:41:03.197Z,100175.63
2022-10-11T01:43:32.326Z,100176.75
2022-10-11T01:46:03.916Z,100171.13
2022-10-11T01:48:32.108Z,100159.53
2022-10-11T01:51:04.417Z,100147.78
2022-10-11T01:53:46.692Z,100151.34
2022-10-11T01:56:40.298Z,100155.84
2022-10-11T01:59:23.427Z,100163.22
2022-10-11T02:02:02.538Z,100163.22
2022-10-11T02:04:34.857Z,100157.97
2022-10-11T02:07:09.008Z,100154.84
2022-10-11T02:09:43.995Z,100157.25
2022-10-11T02:12:14.290Z,100152.91
2022-10-11T02:14:46.646Z,100146.94
2022-10-11T02:17:20.751Z,100153.28
2022-10-11T02:19:53.380Z,100151.47
2022-10-11T02:22:28.072Z,100152.31
2022-10-11T02:25:00.119Z,100152.59
2022-10-11T02:27:32.128Z,100155.97
2022-10-11T02:30:03.512Z,100149.06
2022-10-11T02:32:34.299Z,100148.22
2022-10-11T02:35:03.997Z,100147.50
2022-10-11T02:37:33.890Z,100144.81
2022-10-11T02:40:07.643Z,100145.66
2022-10-11T02:42:39.882Z,100120.66
2022-10-11T02:45:14.283Z,100145.81
2022-10-11T02:47:44.672Z,100143.25
2022-10-11T02:50:13.421Z,100143.41
2022-10-11T02:52:41.556Z,100145.09
2022-10-11T02:55:10.843Z,100145.94
2022-10-11T02:57:38.708Z,100147.50
2022-10-11T03:00:09.064Z,100143.13
2022-10-11T03:02:37.021Z,100141.28
2022-10-11T03:05:06.678Z,100130.41
2022-10-11T03:07:34.618Z,100127.72
2022-10-11T03:10:02.483Z,100122.34
2022-10-11T03:12:30.397Z,100131.28
2022-10-11T03:14:58.337Z,100092.25
2022-10-11T03:17:41.035Z,100132.13
2022-10-11T03:20:11.156Z,100132.13
2022-10-11T03:22:39.051Z,100132.94
2022-10-11T03:25:07.410Z,100139.16
2022-10-11T03:27:35.376Z,100128.16
2022-10-11T03:30:03.413Z,100133.69
2022-10-11T03:32:31.403Z,100132.94
2022-10-11T03:34:59.358Z,100129.56
2022-10-11T03:37:28.825Z,100127.28
2022-10-11T03:39:56.690Z,100125.47
2022-10-11T03:42:24.595Z,100141.72
2022-10-11T03:44:52.521Z,100149.91
2022-10-11T03:47:20.432Z,100115.44
2022-10-11T03:49:48.347Z,100133.94
2022-10-11T03:52:16.283Z,100135.91
2022-10-11T03:54:45.552Z,100135.91
2022-10-11T03:57:13.440Z,100127.00
2022-10-11T03:59:41.356Z,100141.69
2022-10-11T04:02:09.421Z,100149.63
2022-10-11T04:04:37.425Z,100140.84
2022-10-11T04:07:05.369Z,100145.41
2022-10-11T04:09:33.284Z,100143.69
2022-10-11T04:12:02.683Z,100141.00
2022-10-11T04:14:30.785Z,100139.59
2022-10-11T04:17:00.468Z,100146.66
2022-10-11T04:19:29.462Z,100150.34
2022-10-11T04:21:57.386Z,100141.28
2022-10-11T04:24:25.456Z,100143.25
2022-10-11T04:26:53.363Z,100142.56
2022-10-11T04:29:22.795Z,100135.31
2022-10-11T04:31:50.979Z,100097.31
2022-10-11T04:34:19.133Z,100125.88
2022-10-11T04:36:49.919Z,100134.63
2022-10-11T04:39:18.555Z,100141.69
2022-10-11T04:41:46.517Z,100131.09
2022-10-11T04:44:14.454Z,100153.56
2022-10-11T04:46:43.775Z,100144.38
2022-10-11T04:49:11.725Z,100138.00
2022-10-11T04:51:39.627Z,100148.63
2022-10-11T04:54:07.587Z,100146.81
2022-10-11T04:56:35.432Z,100147.66
2022-10-11T04:59:03.309Z,100147.66
2022-10-11T05:01:31.221Z,100154.69
2022-10-11T05:04:00.500Z,100159.09
2022-10-11T05:06:28.417Z,100158.09
2022-10-11T05:08:56.372Z,100168.13
2022-10-11T05:11:24.334Z,100166.28
2022-10-11T05:13:52.216Z,100153.56
2022-10-11T05:16:20.114Z,100169.84
2022-10-11T05:18:48.067Z,100166.13
2022-10-11T05:21:19.642Z,100184.81
2022-10-11T05:23:49.252Z,100175.91
2022-10-11T05:26:17.781Z,100181.44
2022-10-11T05:28:46.045Z,100181.53
2022-10-11T05:31:14.011Z,100193.13
2022-10-11T05:33:42.149Z,100189.47
2022-10-11T05:36:10.704Z,100194.00
2022-10-11T05:38:40.069Z,100194.00
2022-10-11T05:41:10.035Z,100202.31
2022-10-11T05:43:38.032Z,100205.13
2022-10-11T05:46:06.707Z,100213.31
2022-10-11T05:48:35.020Z,100215.31
2022-10-11T05:51:04.226Z,100213.59
2022-10-11T05:53:32.582Z,100213.16
2022-10-11T05:56:02.380Z,100189.66
2022-10-11T05:58:31.402Z,100232.81
2022-10-11T06:00:59.312Z,100219.38
2022-10-11T06:03:27.447Z,100229.53
2022-10-11T06:05:57.155Z,100243.97
2022-10-11T06:08:25.224Z,100247.59
2022-10-11T06:10:53.088Z,100241.66
2022-10-11T06:13:22.420Z,100253.13
2022-10-11T06:16:12.050Z,100256.94
2022-10-11T06:18:40.226Z,100268.63
2022-10-11T06:21:08.505Z,100264.25
2022-10-11T06:23:36.433Z,100270.63
2022-10-11T06:26:07.531Z,100281.34
2022-10-11T06:28:38.192Z,100279.78
2022-10-11T06:31:06.997Z,100283.44
2022-10-11T06:33:35.024Z,100287.13
2022-10-11T06:36:06.504Z,100280.66
2022-10-11T06:38:35.314Z,100289.66
2022-10-11T06:41:10.704Z,100283.31
2022-10-11T06:43:40.041Z,100286.84
2022-10-11T06:46:08.499Z,100289.66
2022-10-11T06:48:40.881Z,100275.34
2022-10-11T06:51:08.784Z,100292.50
2022-10-11T06:53:36.956Z,100287.25
2022-10-11T06:56:06.127Z,100297.97
2022-10-11T06:58:34.393Z,100297.78
2022-10-11T07:01:04.874Z,100304.06
2022-10-11T07:03:33.084Z,100312.84
2022-10-11T07:06:02.840Z,100313.56
2022-10-11T07:08:31.385Z,100317.91
2022-10-11T07:11:03.044Z,100322.06
2022-10-11T07:13:31.300Z,100319.09
2022-10-11T07:16:03.671Z,100332.25
2022-10-11T07:18:32.360Z,100324.22
2022-10-11T07:21:03.263Z,100323.09
2022-10-11T07:23:31.152Z,100321.13
2022-10-11T07:25:59.386Z,100324.50
2022-10-11T07:28:28.831Z,100328.03
2022-10-11T07:30:57.156Z,100331.28
2022-10-11T07:33:26.433Z,100322.25
2022-10-11T07:35:57.935Z,100343.47
2022-10-11T07:38:25.922Z,100343.47
2022-10-11T07:40:53.876Z,100335.56
2022-10-11T07:43:21.753Z,100349.44
2022-10-11T07:45:54.538Z,100347.59
2022-10-11T07:48:22.697Z,100349.28
2022-10-11T07:50:51.917Z,100350.84
2022-10-11T07:53:19.913Z,100350.16
2022-10-11T07:55:47.762Z,100365.72
2022-10-11T07:58:15.720Z,100364.72
2022-10-11T08:00:43.675Z,100375.19
2022-10-11T08:03:11.627Z,100380.44
2022-10-11T08:05:39.610Z,100370.53
2022-10-11T08:08:08.888Z,100369.41
2022-10-11T08:10:39.378Z,100362.47
2022-10-11T08:13:07.457Z,100372.81
2022-10-11T08:15:35.341Z,100385.13
2022-10-11T08:18:03.274Z,100385.13
2022-10-11T08:20:33.163Z,100394.03
2022-10-11T08:23:01.291Z,100390.38
2022-10-11T08:25:30.602Z,100387.69
2022-10-11T08:27:58.476Z,100398.31
2022-10-11T08:30:26.393Z,100405.41
2022-10-11T08:32:54.289Z,100410.78
2022-10-11T08:35:22.364Z,100381.69
2022-10-11T08:37:50.247Z,100407.94
2022-10-11T08:40:20.976Z,100382.28
2022-10-11T08:42:57.033Z,100410.25
2022-10-11T08:45:32.413Z,100419.13
2022-10-11T08:48:09.526Z,100423.38
2022-10-11T08:50:39.398Z,100416.88
2022-10-11T08:53:14.510Z,100411.50
2022-10-11T08:55:46.078Z,100415.91
2022-10-11T08:58:19.157Z,100418.47
2022-10-11T09:00:49.741Z,100427.38
2022-10-11T09:03:29.538Z,100413.94
2022-10-11T09:06:07.405Z,100427.38
2022-10-11T09:08:46.919Z,100423.00
2022-10-11T09:11:22.246Z,100423.97
2022-10-11T09:14:06.949Z,100430.19
2022-10-11T09:16:48.737Z,100432.03
2022-10-11T09:19:43.022Z,100437.56
2022-10-11T09:22:21.726Z,100444.88
2022-10-11T09:25:12.524Z,100443.03
2022-10-11T09:28:02.252Z,100442.34
2022-10-11T09:30:33.570Z,100449.53
2022-10-11T09:33:11.781Z,100444.88
2022-10-11T09:35:43.961Z,100454.78
2022-10-11T09:38:20.422Z,100462.69
2022-10-11T09:41:00.030Z,100468.06
2022-10-11T09:43:28.218Z,100468.06
2022-10-11T09:45:57.490Z,100461.28
2022-10-11T09:48:29.586Z,100475.88
2022-10-11T09:51:03.928Z,100479.28
2022-10-11T09:53:51.780Z,100484.78
2022-10-11T09:56:19.784Z,100483.06
2022-10-11T09:58:47.873Z,100485.66
2022-10-11T10:01:28.287Z,100488.44
2022-10-11T10:04:07.733Z,100483.53
2022-10-11T10:06:35.910Z,100488.91
2022-10-11T10:09:26.630Z,100498.53
2022-10-11T10:11:55.396Z,100490.72
2022-10-11T10:14:26.761Z,100508.28
2022-10-11T10:17:04.359Z,100515.34
2022-10-11T10:19:44.792Z,100521.59
2022-10-11T10:22:19.902Z,100524.28
2022-10-11T10:24:49.859Z,100529.09
2022-10-11T10:27:22.002Z,100535.16
2022-10-11T10:30:20.018Z,100538.81
2022-10-11T10:32:55.729Z,100545.06
2022-10-11T10:35:31.078Z,100538.53
2022-10-11T10:38:08.069Z,100559.34
2022-10-11T10:40:42.623Z,100552.25
2022-10-11T10:43:16.633Z,100527.84
2022-10-11T10:46:16.864Z,100558.63
2022-10-11T10:51:53.034Z,100573.91
2022-10-11T10:54:36.264Z,100555.41
2022-10-11T10:57:12.038Z,100586.75
2022-10-11T11:00:02.119Z,100584.03
2022-10-11T11:02:41.367Z,100592.97
2022-10-11T11:05:34.847Z,100582.94
2022-10-11T11:08:12.116Z,100594.41
2022-10-11T11:10:46.370Z,100592.44
2022-10-11T11:13:22.125Z,100586.06
2022-10-11T11:15:59.071Z,100592.16
2022-10-11T11:18:30.557Z,100591.19
2022-10-11T11:21:16.664Z,100602.78
2022-10-11T11:23:54.208Z,100599.09
2022-10-11T11:26:30.096Z,100617.81
2022-10-11T11:29:09.973Z,100610.59
2022-10-11T11:31:55.002Z,100615.97
2022-10-11T11:34:26.691Z,100620.34
2022-10-11T11:36:59.106Z,100615.72
2022-10-11T11:39:32.306Z,100619.22
2022-10-11T11:42:05.660Z,100614.97
2022-10-11T11:44:37.776Z,100608.56
2022-10-11T11:47:12.211Z,100634.84
2022-10-11T11:52:26.377Z,100636.56
2022-10-11T11:55:04.275Z,100647.16
2022-10-11T11:57:50.159Z,100642.50
2022-10-11T12:00:21.212Z,100655.06
2022-10-11T12:02:54.255Z,100652.28
2022-10-11T12:05:25.818Z,100656.69
2022-10-11T12:07:58.528Z,100672.41
2022-10-11T12:10:30.948Z,100674.09
2022-10-11T12:13:21.476Z,100676.78
2022-10-11T12:15:59.084Z,100669.00
2022-10-11T12:18:27.957Z,100674.38
2022-10-11T12:21:05.804Z,100667.16
2022-10-11T12:23:46.897Z,100671.34
2022-10-11T12:26:35.102Z,100674.38
2022-10-11T12:29:28.865Z,100685.25
2022-10-11T12:32:48.081Z,100689.06
2022-10-11T12:35:54.982Z,100696.25
2022-10-11T12:38:26.530Z,100671.50
2022-10-11T12:40:57.250Z,100714.09
2022-10-11T12:43:29.343Z,100718.50
2022-10-11T12:45:57.613Z,100715.69
2022-10-11T12:48:47.475Z,100715.53
2022-10-11T12:51:33.789Z,100724.59
2022-10-11T12:54:39.329Z,100729.84
2022-10-11T12:57:56.587Z,100729.97
2022-10-11T13:00:29.036Z,100740.72
2022-10-11T13:02:58.283Z,100750.38
2022-10-11T13:05:28.405Z,100748.53
2022-10-11T13:07:59.166Z,100752.06
2022-10-11T13:10:32.402Z,100765.25
2022-10-11T13:13:04.386Z,100757.81
2022-10-11T13:15:32.541Z,100761.97
2022-10-11T13:18:02.169Z,100760.88
2022-10-11T13:20:32.888Z,100774.16
2022-10-11T13:23:00.805Z,100767.06
2022-10-11T13:25:37.590Z,100773.06
2022-10-11T13:28:10.586Z,100789.78
2022-10-11T13:30:43.370Z,100783.56
2022-10-11T13:33:21.021Z,100781.59
2022-10-11T13:35:49.374Z,100790.50
2022-10-11T13:38:21.763Z,100783.41
2022-10-11T13:40:51.584Z,100800.88
2022-10-11T13:43:23.837Z,100798.88
2022-10-11T13:45:52.043Z,100804.16
2022-10-11T13:48:20.048Z,100808.53
2022-10-11T13:51:06.816Z,100809.44
2022-10-11T13:53:35.076Z,100792.84
2022-10-11T13:56:08.057Z,100823.84
2022-10-11T13:58:41.113Z,100821.97
2022-10-11T14:01:20.026Z,100823.72
2022-10-11T14:03:56.021Z,100830.84
2022-10-11T14:06:24.813Z,100824.59
2022-10-11T14:08:56.453Z,100828.84
2022-10-11T14:11:37.380Z,100838.66
2022-10-11T14:14:30.078Z,100832.41
2022-10-11T14:17:00.689Z,100846.19
2022-10-11T14:19:28.580Z,100846.09
2022-10-11T14:21:56.484Z,100856.00
2022-10-11T14:24:24.673Z,100856.13
2022-10-11T14:26:55.912Z,100862.31
2022-10-11T14:29:27.155Z,100874.94
2022-10-11T14:31:59.966Z,100872.25
2022-10-11T14:34:28.603Z,100875.91
2022-10-11T14:36:56.674Z,100871.41
2022-10-11T14:39:27.106Z,100879.56
2022-10-11T14:41:56.417Z,100887.53
2022-10-11T14:44:24.340Z,100877.53
2022-10-11T14:46:54.775Z,100896.56
2022-10-11T14:49:25.720Z,100886.91
2022-10-11T14:51:56.018Z,100895.84
2022-10-11T14:54:25.376Z,100902.34
2022-10-11T14:56:55.319Z,100900.63
2022-10-11T14:59:27.443Z,100908.56
2022-10-11T15:01:55.470Z,100905.16
2022-10-11T15:04:25.293Z,100912.38
2022-10-11T15:06:55.047Z,100898.94
2022-10-11T15:09:23.346Z,100924.09
2022-10-11T15:11:54.214Z,100927.50
2022-10-11T15:14:24.605Z,100927.78
2022-10-11T15:16:52.594Z,100933.75
2022-10-11T15:19:22.639Z,100942.66
2022-10-11T15:21:51.160Z,100942.66
2022-10-11T15:24:20.804Z,100937.69
2022-10-11T15:26:49.577Z,100944.50
2022-10-11T15:29:18.935Z,100937.47
2022-10-11T15:31:49.315Z,100930.34
2022-10-11T15:34:17.784Z,100961.63
2022-10-11T15:36:45.706Z,100953.09
2022-10-11T15:39:25.054Z,100974.22
2022-10-11T15:41:52.953Z,100976.19
2022-10-11T15:44:20.945Z,100980.22
2022-10-11T15:46:50.211Z,100981.06
2022-10-11T15:49:18.767Z,100988.28
2022-10-11T15:51:47.165Z,100972.66
2022-10-11T15:54:15.046Z,101000.25
2022-10-11T15:56:43.295Z,101008.47
2022-10-11T15:59:12.718Z,101000.78
2022-10-11T16:01:40.853Z,100995.41
2022-10-11T16:04:10.705Z,101014.22
2022-10-11T16:06:38.677Z,101018.84
2022-10-11T16:09:06.765Z,101025.22
2022-10-11T16:11:34.686Z,101032.53
2022-10-11T16:14:02.582Z,101032.66
2022-10-11T16:16:30.496Z,101036.56
2022-10-11T16:18:58.370Z,101023.47
2022-10-11T16:21:27.659Z,101029.47
2022-10-11T16:23:55.557Z,101030.72
2022-10-11T16:26:23.532Z,101016.66
2022-10-11T16:28:51.508Z,101038.41
2022-10-11T16:31:21.010Z,101044.72
2022-10-11T16:33:50.210Z,101022.00
2022-10-11T16:36:37.020Z,101053.16
2022-10-11T16:39:10.037Z,101067.69
2022-10-11T16:41:38.113Z,101062.56
2022-10-11T16:44:06.722Z,101059.16
2022-10-11T16:46:35.550Z,101038.09
2022-10-11T16:49:03.958Z,101064.03
2022-10-11T16:51:31.885Z,101065.97
2022-10-11T16:53:59.837Z,101079.41
2022-10-11T16:56:29.174Z,101081.38
2022-10-11T16:58:57.177Z,101081.69
2022-10-11T17:01:25.342Z,101084.34
2022-10-11T17:03:54.022Z,101091.69
2022-10-11T17:06:21.945Z,101089.13
2022-10-11T17:08:50.041Z,101099.03
2022-10-11T17:11:18.541Z,101092.16
2022-10-11T17:13:49.058Z,101093.00
2022-10-11T17:16:18.394Z,101086.50
2022-10-11T17:18:46.504Z,101076.63
2022-10-11T17:21:17.538Z,101105.06
2022-10-11T17:23:46.512Z,101115.94
2022-10-11T17:26:17.419Z,101107.91
2022-10-11T17:28:47.477Z,101106.16
2022-10-11T17:31:15.557Z,101109.09
2022-10-11T17:33:43.485Z,101110.06
2022-10-11T17:36:19.627Z,101112.75
2022-10-11T17:38:47.698Z,101110.31
2022-10-11T17:41:16.001Z,101113.00
2022-10-11T17:43:44.651Z,101116.75
2022-10-11T17:46:15.462Z,101122.13
2022-10-11T17:48:44.652Z,101122.38
2022-10-11T17:51:14.344Z,101117.81
2022-10-11T17:53:43.145Z,101135.06
2022-10-11T17:56:13.146Z,101137.00
2022-10-11T17:58:41.417Z,101138.09
2022-10-11T18:01:12.046Z,101142.59
2022-10-11T18:03:42.881Z,101129.97
2022-10-11T18:06:13.198Z,101146.38
2022-10-11T18:08:42.211Z,101146.47
2022-10-11T18:11:12.018Z,101153.69
2022-10-11T18:13:42.804Z,101152.94
2022-10-11T18:16:11.841Z,101156.59
2022-10-11T18:18:42.371Z,101163.66
2022-10-11T18:21:11.417Z,101163.88
2022-10-11T18:23:39.874Z,101170.25
2022-10-11T18:26:13.762Z,101179.16
2022-10-11T18:28:42.889Z,101181.94
2022-10-11T18:31:14.351Z,101181.06
2022-10-11T18:33:46.115Z,101178.53
2022-10-11T18:36:15.653Z,101177.66
2022-10-11T18:38:47.181Z,101184.84
2022-10-11T18:41:17.352Z,101179.72
2022-10-11T18:43:49.941Z,101185.94
2022-10-11T18:46:21.313Z,101178.44
2022-10-11T18:48:53.011Z,101188.63
2022-10-11T18:51:23.370Z,101188.75
2022-10-11T18:53:51.807Z,101162.50
2022-10-11T18:56:22.215Z,101197.75
2022-10-11T18:58:51.626Z,101199.59
2022-10-11T19:01:22.148Z,101200.44
2022-10-11T19:03:53.975Z,101212.16
2022-10-11T19:06:27.291Z,101210.56
2022-10-11T19:09:00.219Z,101213.25
2022-10-11T19:11:29.320Z,101215.06
2022-10-11T19:13:59.222Z,101210.78
2022-10-11T19:16:30.755Z,101214.31
2022-10-11T19:19:00.951Z,101206.38
2022-10-11T19:21:29.206Z,101214.41
2022-10-11T19:23:57.534Z,101218.91
2022-10-11T19:26:28.858Z,101226.97
2022-10-11T19:28:58.342Z,101194.78
2022-10-11T19:31:26.408Z,101219.03
2022-10-11T19:33:55.291Z,101226.22
2022-10-11T19:36:24.933Z,101226.97
2022-10-11T19:38:56.813Z,101238.69
2022-10-11T19:41:27.387Z,101211.88
2022-10-11T19:43:58.081Z,101232.59
2022-10-11T19:46:49.922Z,101237.19
2022-10-11T19:49:17.611Z,101247.91
2022-10-11T19:51:47.234Z,101246.22
2022-10-11T19:54:15.800Z,101224.84
2022-10-11T19:56:44.643Z,101246.22
2022-10-11T19:59:13.778Z,101253.28
2022-10-11T20:01:45.524Z,101256.97
2022-10-11T20:04:33.571Z,101258.78
2022-10-11T20:07:05.281Z,101256.97
2022-10-11T20:09:33.161Z,101257.03
2022-10-11T20:12:01.085Z,101265.63
2022-10-11T20:14:28.977Z,101271.00
2022-10-11T20:16:57.159Z,101251.06
2022-10-11T20:19:30.701Z,101266.41
2022-10-11T20:21:59.127Z,101263.72
2022-10-11T20:24:32.618Z,101267.00
2022-10-11T20:27:01.822Z,101274.19
2022-10-11T20:29:29.691Z,101273.16
2022-10-11T20:31:58.979Z,101277.53
2022-10-11T20:34:27.665Z,101277.53
2022-10-11T20:36:55.570Z,101281.81
2022-10-11T20:39:23.763Z,101281.81
2022-10-11T20:41:53.127Z,101280.75
2022-10-11T20:44:21.000Z,101283.44
2022-10-11T20:46:48.878Z,101286.03
2022-10-11T20:49:19.813Z,101285.91
2022-10-11T20:51:47.865Z,101284.16
2022-10-11T20:54:16.213Z,101266.16
2022-10-11T20:56:44.301Z,101285.03
2022-10-11T20:59:13.557Z,101290.19
2022-10-11T21:01:42.038Z,101294.69
2022-10-11T21:04:17.353Z,101290.19
2022-10-11T21:06:45.397Z,101294.69
2022-10-11T21:09:15.655Z,101297.38
2022-10-11T21:11:44.661Z,101291.91
2022-10-11T21:14:14.199Z,101292.75
2022-10-11T21:16:42.103Z,101304.34
2022-10-11T21:19:15.042Z,101299.75
2022-10-11T21:21:43.299Z,101298.97
2022-10-11T21:24:11.442Z,101300.72
2022-10-11T21:26:39.436Z,101299.84
2022-10-11T21:29:08.437Z,101312.31
2022-10-11T21:31:37.807Z,101311.31
2022-10-11T21:34:07.402Z,101308.63
2022-10-11T21:36:35.409Z,101302.22
2022-10-11T21:39:03.719Z,101314.00
2022-10-11T21:41:31.693Z,101313.91
2022-10-11T21:43:59.715Z,101314.00
2022-10-11T21:49:18.560Z,101322.06
2022-10-11T21:51:46.738Z,101318.53
2022-10-11T21:54:14.627Z,101320.38
2022-10-11T21:56:42.893Z,101321.31
2022-10-11T21:59:12.483Z,101316.63
2022-10-11T22:01:41.735Z,101334.66
2022-10-11T22:04:10.539Z,101333.00
2022-10-11T22:06:40.236Z,101334.53
2022-10-11T22:09:09.293Z,101334.53
2022-10-11T22:11:37.205Z,101331.84
2022-10-11T22:14:05.367Z,101303.41
2022-10-11T22:16:34.307Z,101325.63
2022-10-11T22:19:02.260Z,101321.22
2022-10-11T22:21:30.326Z,101332.81
2022-10-11T22:23:59.620Z,101331.84
2022-10-11T22:26:30.731Z,101338.16
2022-10-11T22:28:59.415Z,101336.47
2022-10-11T22:31:27.582Z,101296.53
2022-10-11T22:33:56.168Z,101326.59
2022-10-11T22:36:25.128Z,101330.13
2022-10-11T22:38:54.054Z,101324.00
2022-10-11T22:41:23.877Z,101339.91
2022-10-11T22:43:51.953Z,101326.91
2022-10-11T22:46:20.215Z,101330.97
2022-10-11T22:48:48.048Z,101343.44
2022-10-11T22:51:16.071Z,101338.16
2022-10-11T22:53:44.017Z,101336.47
2022-10-11T22:56:12.214Z,101340.03
2022-10-11T22:58:41.465Z,101336.34
2022-10-11T23:01:10.141Z,101309.75
2022-10-11T23:03:38.533Z,101340.84
2022-10-11T23:06:07.009Z,101346.22
2022-10-11T23:08:34.992Z,101348.91
2022-10-11T23:11:07.194Z,101343.44
2022-10-11T23:13:35.370Z,101340.03
2022-10-11T23:16:08.359Z,101338.16
2022-10-11T23:18:36.287Z,101351.72
2022-10-11T23:21:05.633Z,101348.16
2022-10-11T23:23:34.022Z,101345.59
2022-10-11T23:26:07.142Z,101359.88
2022-10-11T23:28:35.748Z,101361.94
2022-10-11T23:31:09.461Z,101352.25
2022-10-11T23:33:37.472Z,101362.00
2022-10-11T23:36:06.625Z,101371.06
2022-10-11T23:38:34.506Z,101376.44
2022-10-11T23:41:02.408Z,101373.00
2022-10-11T23:43:30.285Z,101372.22
2022-10-11T23:45:58.188Z,101379.31
2022-10-11T23:48:27.640Z,101346.59
2022-10-11T23:50:55.509Z,101381.25
2022-10-11T23:53:23.474Z,101383.94
2022-10-11T23:55:51.906Z,101386.72
2022-10-11T23:58:19.876Z,101395.84
